Terminal Aerodrome Forecast
Issued by NWS

Home | Current Version | Previous Version | Text Only | Print | Product List | Glossary On
Versions: 1 2 3 4 5 6 7 8 9 10 11 12 13 14 15 16 17 18
380
FTUS46 KSGX 251456 AAA
TAFCRQ
TAF AMD
KCRQ 251456Z 2515/2612 VRB04KT 6SM HZ SCT010 BKN150
     FM251900 25008KT P6SM VCSH SCT070 BKN150
     FM260100 VRB04KT P6SM SCT200
     FM260500 VRB04KT P6SM OVC008=

USA.gov is the U.S. government's official web portal to all federal, state and local government web resources and services.